createdAt,value
2023-03-30T00:01:19.602Z,11.53
2023-03-30T00:06:24.928Z,15.43
2023-03-30T00:11:32.066Z,14.03
2023-03-30T00:16:37.868Z,11.77
2023-03-30T00:21:43.021Z,14.83
2023-03-30T00:26:48.285Z,11.17
2023-03-30T00:31:53.488Z,13.43
2023-03-30T00:36:58.655Z,13.97
2023-03-30T00:42:03.933Z,12.27
2023-03-30T00:47:09.237Z,12.00
2023-03-30T00:52:16.280Z,12.00
2023-03-30T00:57:24.540Z,13.57
2023-03-30T01:02:32.693Z,12.93
2023-03-30T01:07:40.435Z,12.80
2023-03-30T01:12:46.637Z,14.17
2023-03-30T01:18:16.016Z,14.13
2023-03-30T01:23:27.601Z,15.17
2023-03-30T01:28:53.401Z,18.63
2023-03-30T01:34:24.481Z,17.97
2023-03-30T01:39:49.134Z,14.27
2023-03-30T01:45:11.963Z,14.13
2023-03-30T01:50:20.506Z,14.93
2023-03-30T01:55:40.534Z,11.87
2023-03-30T02:00:51.048Z,20.97
2023-03-30T02:05:59.383Z,20.43
2023-03-30T02:11:05.874Z,14.97
2023-03-30T02:16:17.690Z,15.60
2023-03-30T02:21:23.164Z,14.20
2023-03-30T02:26:29.773Z,16.77
2023-03-30T02:31:35.183Z,21.30
2023-03-30T02:36:52.240Z,10.13
2023-03-30T02:42:12.695Z,21.83
2023-03-30T02:47:23.739Z,9.93
2023-03-30T02:52:53.200Z,10.07
2023-03-30T02:58:18.780Z,18.20
2023-03-30T03:03:33.656Z,18.93
2023-03-30T03:08:42.644Z,13.33
2023-03-30T03:13:48.921Z,13.60
2023-03-30T03:18:54.519Z,15.00
2023-03-30T03:23:59.931Z,9.70
2023-03-30T03:29:05.178Z,22.30
2023-03-30T03:34:10.339Z,18.10
2023-03-30T03:39:15.692Z,11.00
2023-03-30T03:44:21.011Z,16.13
2023-03-30T03:49:26.473Z,12.87
2023-03-30T03:54:31.613Z,14.47
2023-03-30T03:59:36.840Z,11.07
2023-03-30T04:04:42.182Z,9.57
2023-03-30T04:09:47.438Z,13.03
2023-03-30T04:14:54.210Z,18.50
2023-03-30T04:19:59.359Z,16.30
2023-03-30T04:25:05.801Z,9.03
2023-03-30T04:30:12.997Z,14.37
2023-03-30T04:35:19.360Z,11.93
2023-03-30T04:40:25.324Z,9.37
2023-03-30T04:45:31.268Z,13.43
2023-03-30T04:50:36.689Z,18.07
2023-03-30T04:55:42.501Z,14.73
2023-03-30T05:00:47.803Z,11.20
2023-03-30T05:05:53.063Z,15.33
2023-03-30T05:11:00.147Z,24.80
2023-03-30T05:16:06.531Z,20.60
2023-03-30T05:21:11.791Z,16.30
2023-03-30T05:26:17.239Z,8.80
2023-03-30T05:31:22.598Z,14.27
2023-03-30T05:36:29.063Z,14.60
2023-03-30T05:41:34.285Z,18.47
2023-03-30T05:46:39.561Z,15.67
2023-03-30T05:51:44.828Z,13.63
2023-03-30T05:56:52.238Z,21.43
2023-03-30T06:01:56.886Z,16.83
2023-03-30T06:07:02.234Z,25.27
2023-03-30T06:12:08.212Z,13.30
2023-03-30T06:17:15.732Z,17.70
2023-03-30T06:22:21.641Z,15.33
2023-03-30T06:27:26.953Z,30.13
2023-03-30T06:32:32.278Z,20.83
2023-03-30T06:37:37.635Z,21.17
2023-03-30T06:42:47.235Z,15.03
2023-03-30T06:47:52.610Z,15.30
2023-03-30T06:52:57.940Z,10.90
2023-03-30T06:58:03.503Z,15.20
2023-03-30T07:03:09.050Z,22.57
2023-03-30T07:08:14.633Z,19.13
2023-03-30T07:13:20.317Z,15.03
2023-03-30T07:18:26.471Z,19.53
2023-03-30T07:23:31.798Z,16.87
2023-03-30T07:28:45.428Z,16.37
2023-03-30T07:33:51.224Z,17.03
2023-03-30T07:38:58.648Z,20.93
2023-03-30T07:44:04.074Z,13.87
2023-03-30T07:49:09.672Z,13.03
2023-03-30T07:54:15.286Z,13.37
2023-03-30T07:59:22.086Z,17.50
2023-03-30T08:04:28.412Z,14.97
2023-03-30T08:09:33.741Z,12.63
2023-03-30T08:14:39.768Z,16.20
2023-03-30T08:19:45.751Z,15.80
2023-03-30T08:24:51.474Z,14.50
2023-03-30T08:29:56.888Z,15.33
2023-03-30T08:35:02.798Z,14.03
2023-03-30T08:40:10.584Z,17.93
2023-03-30T08:45:16.040Z,14.57
2023-03-30T08:50:36.070Z,17.30
2023-03-30T08:55:53.139Z,14.40
2023-03-30T09:01:27.375Z,14.53
2023-03-30T09:06:55.467Z,14.10
2023-03-30T09:12:09.562Z,12.93
2023-03-30T09:17:24.052Z,16.93
2023-03-30T09:22:35.807Z,14.03
2023-03-30T09:27:53.020Z,16.93
2023-03-30T09:33:03.791Z,13.13
2023-03-30T09:38:14.882Z,14.13
2023-03-30T09:43:35.405Z,15.00
2023-03-30T09:48:43.193Z,10.93
2023-03-30T09:53:50.962Z,12.57
2023-03-30T09:58:56.903Z,15.90
2023-03-30T10:04:12.905Z,13.83
2023-03-30T10:09:21.321Z,11.57
2023-03-30T10:14:37.299Z,13.00
2023-03-30T10:19:48.182Z,11.23
2023-03-30T10:24:57.699Z,12.13
2023-03-30T10:30:11.375Z,20.93
2023-03-30T10:35:22.187Z,15.47
2023-03-30T10:40:39.438Z,14.40
2023-03-30T10:46:01.491Z,11.17
2023-03-30T10:51:18.469Z,18.80
2023-03-30T10:56:38.925Z,21.17
2023-03-30T11:02:09.852Z,12.40
2023-03-30T11:07:20.850Z,14.70
2023-03-30T11:12:29.175Z,13.40
2023-03-30T11:17:37.603Z,14.90
2023-03-30T11:22:52.092Z,20.37
2023-03-30T11:28:17.555Z,53.57
2023-03-30T11:33:37.600Z,15.47
2023-03-30T11:38:51.969Z,18.10
2023-03-30T11:43:58.071Z,9.70
2023-03-30T11:49:27.743Z,13.43
2023-03-30T11:54:49.609Z,15.03
2023-03-30T11:59:51.607Z,9.80
2023-03-30T12:05:03.103Z,14.23
2023-03-30T12:10:12.078Z,12.90
2023-03-30T12:15:29.394Z,5.50
2023-03-30T12:21:02.698Z,9.50
2023-03-30T12:26:14.898Z,9.83
2023-03-30T12:31:22.319Z,9.73
2023-03-30T12:36:51.956Z,10.13
2023-03-30T12:42:15.174Z,18.03
2023-03-30T12:47:43.875Z,11.53
2023-03-30T12:53:11.402Z,8.30
2023-03-30T12:58:53.809Z,9.00
2023-03-30T13:04:09.653Z,11.10
2023-03-30T13:09:34.428Z,12.87
2023-03-30T13:14:46.677Z,11.53
2023-03-30T13:20:29.173Z,9.60
2023-03-30T13:25:43.905Z,13.60
2023-03-30T13:30:50.575Z,18.60
2023-03-30T13:36:24.058Z,13.20
2023-03-30T13:41:59.762Z,16.87
2023-03-30T13:47:14.082Z,10.50
2023-03-30T13:52:23.387Z,19.53
2023-03-30T13:57:41.643Z,31.90
2023-03-30T14:02:50.325Z,25.30
2023-03-30T14:07:59.984Z,10.47
2023-03-30T14:13:08.534Z,9.60
2023-03-30T14:18:23.196Z,11.40
2023-03-30T14:23:41.616Z,18.23
2023-03-30T14:28:47.709Z,13.67
2023-03-30T14:33:53.540Z,16.70
2023-03-30T14:38:59.498Z,17.60
2023-03-30T14:44:07.833Z,27.67
2023-03-30T14:49:16.314Z,15.17
2023-03-30T14:54:24.176Z,16.30
2023-03-30T14:59:32.297Z,11.83
2023-03-30T15:04:40.652Z,11.03
2023-03-30T15:09:47.627Z,11.47
2023-03-30T15:15:00.407Z,16.77
2023-03-30T15:20:14.230Z,17.93
2023-03-30T15:25:33.775Z,14.43
2023-03-30T15:30:53.877Z,11.90
2023-03-30T15:36:08.305Z,16.23
2023-03-30T15:41:18.572Z,14.53
2023-03-30T15:46:29.687Z,15.53
2023-03-30T15:51:46.647Z,19.00
2023-03-30T15:57:14.143Z,15.73
2023-03-30T16:02:34.093Z,12.37
2023-03-30T16:07:41.173Z,13.80
2023-03-30T16:12:54.821Z,13.07
2023-03-30T16:18:02.348Z,16.73
2023-03-30T16:23:08.837Z,11.10
2023-03-30T16:28:22.323Z,11.83
2023-03-30T16:33:32.327Z,17.83
2023-03-30T16:38:39.166Z,16.13
2023-03-30T16:43:57.834Z,12.23
2023-03-30T16:49:05.207Z,17.00
2023-03-30T16:54:29.337Z,19.03
2023-03-30T16:59:25.557Z,16.13
2023-03-30T17:04:31.034Z,35.77
2023-03-30T17:09:36.822Z,66.43
2023-03-30T17:14:43.919Z,48.33
2023-03-30T17:19:49.282Z,28.90
2023-03-30T17:24:54.779Z,32.57
2023-03-30T17:30:00.264Z,26.80
2023-03-30T17:35:06.464Z,26.23
2023-03-30T17:40:21.522Z,53.47
2023-03-30T17:45:29.568Z,29.77
2023-03-30T17:50:39.736Z,23.97
2023-03-30T17:55:47.231Z,19.80
2023-03-30T18:00:53.790Z,29.10
2023-03-30T18:06:00.840Z,20.77
2023-03-30T18:11:07.353Z,20.10
2023-03-30T18:16:13.351Z,32.23
2023-03-30T18:21:18.878Z,20.60
2023-03-30T18:26:24.894Z,20.97
2023-03-30T18:31:30.494Z,27.30
2023-03-30T18:36:36.007Z,23.37
2023-03-30T18:41:41.676Z,26.70
2023-03-30T18:46:50.095Z,29.60
2023-03-30T18:51:55.748Z,23.50
2023-03-30T18:57:01.374Z,23.83
2023-03-30T19:02:07.679Z,22.40
2023-03-30T19:07:14.715Z,27.17
2023-03-30T19:12:20.162Z,27.80
2023-03-30T19:17:25.852Z,25.27
2023-03-30T19:22:31.316Z,30.47
2023-03-30T19:27:36.987Z,30.60
2023-03-30T19:32:43.398Z,49.13
2023-03-30T19:37:48.812Z,16.00
2023-03-30T19:42:54.191Z,22.17
2023-03-30T19:47:59.837Z,15.57
2023-03-30T19:53:05.254Z,13.30
2023-03-30T19:58:13.777Z,12.27
2023-03-30T20:03:19.214Z,8.90
2023-03-30T20:08:25.894Z,8.80
2023-03-30T20:13:31.362Z,8.00
2023-03-30T20:18:38.275Z,4.60
2023-03-30T20:23:43.663Z,8.13
2023-03-30T20:28:49.481Z,4.77
2023-03-30T20:33:55.751Z,5.23
2023-03-30T20:39:01.304Z,3.53
2023-03-30T20:44:12.627Z,10.17
2023-03-30T20:49:17.931Z,7.03
2023-03-30T20:54:23.801Z,5.23
2023-03-30T20:59:29.195Z,2.97
2023-03-30T21:04:34.833Z,3.03
2023-03-30T21:09:41.591Z,2.83
2023-03-30T21:14:46.976Z,2.53
2023-03-30T21:19:52.592Z,4.57
2023-03-30T21:24:57.941Z,3.93
2023-03-30T21:30:03.287Z,4.27
2023-03-30T21:35:09.397Z,2.33
2023-03-30T21:40:15.154Z,1.87
2023-03-30T21:45:21.156Z,2.40
2023-03-30T21:50:26.638Z,1.83
2023-03-30T21:55:32.127Z,3.10
2023-03-30T22:00:38.995Z,2.13
2023-03-30T22:05:44.811Z,2.23
2023-03-30T22:11:03.379Z,2.63
2023-03-30T22:16:17.443Z,7.90
2023-03-30T22:21:25.701Z,2.63
2023-03-30T22:26:31.378Z,4.53
2023-03-30T22:31:36.854Z,3.90
2023-03-30T22:36:43.792Z,4.10
2023-03-30T22:41:48.899Z,5.33
2023-03-30T22:46:54.340Z,4.93
2023-03-30T22:52:01.320Z,7.37
2023-03-30T22:57:06.623Z,6.90
2023-03-30T23:02:12.408Z,7.90
2023-03-30T23:07:17.704Z,7.60
2023-03-30T23:12:22.966Z,4.00
2023-03-30T23:17:30.263Z,6.70
2023-03-30T23:22:35.637Z,8.17
2023-03-30T23:27:41.058Z,7.60
2023-03-30T23:32:46.419Z,5.77
2023-03-30T23:37:52.963Z,5.53
2023-03-30T23:42:58.761Z,9.47
2023-03-30T23:48:04.224Z,7.83
2023-03-30T23:53:10.706Z,5.53
2023-03-30T23:58:16.833Z,6.27
